Time;durP1;ratioP1;P1;durP2;ratioP2;P2;SDS_P1;SDS_P2;PMS_P1;PMS_P2;Temp;Humidity;BMP_temperature;BMP_pressure;BME280_temperature;BME280_humidity;BME280_pressure;Samples;Min_cycle;Max_cycle;Signal;HPM_P1;HPM_P2
2021/01/07 00:01:13;;;;;;;18.40;9.88;;;0.80;92.60;;;;;;5109555;28;20392;-85
2021/01/07 00:03:38;;;;;;;20.67;10.85;;;0.80;92.60;;;;;;5112848;28;20387;-84
2021/01/07 00:06:14;;;;;;;22.48;10.48;;;0.80;92.40;;;;;;5113313;28;20392;-84
2021/01/07 00:08:40;;;;;;;18.85;9.63;;;0.80;92.50;;;;;;5113244;28;20388;-85
2021/01/07 00:11:07;;;;;;;19.80;10.30;;;0.80;92.70;;;;;;5113331;28;20394;-85
2021/01/07 00:13:33;;;;;;;17.67;9.18;;;0.80;92.90;;;;;;5113575;28;20900;-84
2021/01/07 00:15:59;;;;;;;19.02;10.30;;;0.70;92.80;;;;;;5113443;28;20876;-84
2021/01/07 00:18:25;;;;;;;20.73;10.07;;;0.70;92.80;;;;;;5113314;28;20384;-84
2021/01/07 00:20:51;;;;;;;20.30;10.30;;;0.70;93.00;;;;;;5113251;28;20388;-84
2021/01/07 00:23:17;;;;;;;22.27;10.57;;;0.70;93.10;;;;;;5113462;28;20392;-84
2021/01/07 00:25:50;;;;;;;27.52;10.82;;;0.70;93.00;;;;;;5113089;28;20772;-84
2021/01/07 00:28:17;;;;;;;23.43;11.00;;;0.80;93.10;;;;;;5112991;28;20391;-84
2021/01/07 00:30:44;;;;;;;24.08;10.93;;;0.70;93.00;;;;;;5114527;28;20856;-84
2021/01/07 00:33:12;;;;;;;22.98;11.00;;;0.70;93.00;;;;;;5112989;28;20425;-84
2021/01/07 00:35:37;;;;;;;21.25;10.57;;;0.70;93.10;;;;;;5113348;28;20419;-84
2021/01/07 00:38:04;;;;;;;24.07;11.03;;;0.70;92.90;;;;;;5113110;28;20469;-85
2021/01/07 00:40:31;;;;;;;24.83;11.80;;;0.70;93.10;;;;;;5113538;28;20384;-84
2021/01/07 00:42:56;;;;;;;24.25;11.20;;;0.80;93.10;;;;;;5114426;28;20471;-84
2021/01/07 00:45:22;;;;;;;24.60;11.02;;;0.70;93.20;;;;;;5113241;28;20482;-84
2021/01/07 00:47:48;;;;;;;27.47;12.57;;;0.70;93.40;;;;;;5112565;28;20381;-84
2021/01/07 00:50:13;;;;;;;26.93;11.93;;;0.70;93.30;;;;;;5113111;28;20384;-85
2021/01/07 00:52:40;;;;;;;25.85;11.45;;;0.70;93.50;;;;;;5112831;28;20376;-85
2021/01/07 00:55:07;;;;;;;19.93;10.80;;;0.70;93.40;;;;;;5112610;28;20915;-84
2021/01/07 00:57:33;;;;;;;22.50;11.60;;;0.70;93.60;;;;;;5111129;28;20865;-85
2021/01/07 00:59:58;;;;;;;23.23;11.43;;;0.80;93.60;;;;;;5111382;28;20418;-85
2021/01/07 01:02:24;;;;;;;25.63;12.00;;;0.70;93.80;;;;;;5111590;28;20887;-85
2021/01/07 01:04:50;;;;;;;25.10;11.23;;;0.80;93.80;;;;;;5111190;28;20400;-85
2021/01/07 01:08:08;;;;;;;25.27;12.27;;;0.70;93.80;;;;;;5111190;28;20445;-85
2021/01/07 01:10:34;;;;;;;23.13;11.93;;;0.70;93.90;;;;;;5110408;28;20439;-85
2021/01/07 01:13:01;;;;;;;33.17;14.93;;;0.70;93.90;;;;;;5111321;28;20868;-85
2021/01/07 01:15:26;;;;;;;34.33;14.90;;;0.70;94.10;;;;;;5110722;28;20944;-85
2021/01/07 01:17:52;;;;;;;33.22;15.65;;;0.70;94.20;;;;;;5110586;28;20467;-85
2021/01/07 01:20:17;;;;;;;33.60;15.52;;;0.70;94.20;;;;;;5110841;28;20381;-85
2021/01/07 01:22:44;;;;;;;33.45;16.17;;;0.70;94.20;;;;;;5110864;28;20427;-85
2021/01/07 01:25:11;;;;;;;34.13;15.68;;;0.70;94.40;;;;;;5112303;28;20407;-85
2021/01/07 01:27:40;;;;;;;34.47;15.90;;;0.70;94.50;;;;;;5111697;28;20426;-85
2021/01/07 01:30:07;;;;;;;35.00;15.73;;;0.80;94.30;;;;;;5110832;28;20415;-86
2021/01/07 01:32:37;;;;;;;29.13;13.90;;;0.80;94.30;;;;;;5111639;27;20437;-85
2021/01/07 01:35:06;;;;;;;31.63;13.45;;;0.70;94.10;;;;;;5111003;28;20410;-84
2021/01/07 01:37:34;;;;;;;28.20;13.13;;;0.70;94.20;;;;;;5110185;28;20865;-84
2021/01/07 01:40:00;;;;;;;30.08;13.70;;;0.70;94.40;;;;;;5110773;28;20388;-84
2021/01/07 01:42:27;;;;;;;28.10;13.18;;;0.70;94.30;;;;;;5110294;28;20384;-85
2021/01/07 01:44:53;;;;;;;27.17;11.57;;;0.70;94.40;;;;;;5110836;28;20404;-84
2021/01/07 01:47:19;;;;;;;28.38;11.93;;;0.70;94.60;;;;;;5111492;28;20384;-85
2021/01/07 01:49:50;;;;;;;26.05;11.82;;;0.80;94.40;;;;;;5110485;28;20408;-85
2021/01/07 01:52:18;;;;;;;19.65;10.80;;;0.70;94.60;;;;;;5111901;28;20376;-84
2021/01/07 01:54:44;;;;;;;23.13;10.27;;;0.70;94.60;;;;;;5063626;28;1323959;-85
2021/01/07 01:57:13;;;;;;;24.55;11.32;;;0.70;94.70;;;;;;5111204;28;20384;-85
2021/01/07 01:59:39;;;;;;;23.98;10.25;;;0.60;94.50;;;;;;5112727;28;20461;-84
2021/01/07 02:02:26;;;;;;;30.42;11.30;;;0.60;94.70;;;;;;5111342;28;20394;-85
2021/01/07 02:04:52;;;;;;;24.05;11.55;;;0.70;94.70;;;;;;5110335;28;20416;-85
2021/01/07 02:07:23;;;;;;;27.15;11.55;;;0.70;94.60;;;;;;5112374;28;20744;-85
2021/01/07 02:09:49;;;;;;;24.77;11.70;;;0.80;94.50;;;;;;5111239;28;20423;-85
2021/01/07 02:12:15;;;;;;;23.58;11.23;;;0.80;94.50;;;;;;5111126;28;20420;-84
2021/01/07 02:14:42;;;;;;;27.05;11.68;;;0.80;94.50;;;;;;5111398;28;20388;-84
2021/01/07 02:17:09;;;;;;;26.35;12.75;;;0.80;94.20;;;;;;5110619;28;20408;-84
2021/01/07 02:19:35;;;;;;;29.02;12.45;;;0.70;94.20;;;;;;5112374;28;20749;-85
2021/01/07 02:22:00;;;;;;;30.20;13.43;;;0.80;94.40;;;;;;5110900;28;20533;-85
2021/01/07 02:24:28;;;;;;;29.13;13.88;;;0.80;94.40;;;;;;5110976;28;20388;-84
2021/01/07 02:26:57;;;;;;;37.17;15.52;;;0.90;94.30;;;;;;5109442;28;20420;-84
2021/01/07 02:29:23;;;;;;;37.67;16.35;;;0.80;94.30;;;;;;5110723;28;20381;-85
2021/01/07 02:31:48;;;;;;;41.78;17.92;;;0.80;94.20;;;;;;5110617;28;20438;-84
2021/01/07 02:34:14;;;;;;;41.58;18.85;;;0.80;94.40;;;;;;5110874;28;20790;-85
2021/01/07 02:36:40;;;;;;;40.53;18.50;;;0.80;94.50;;;;;;5111771;28;20400;-84
2021/01/07 02:39:05;;;;;;;37.85;18.05;;;0.80;94.20;;;;;;5110510;28;20392;-85
2021/01/07 02:41:31;;;;;;;42.47;19.50;;;0.90;94.30;;;;;;5110977;28;20373;-84
2021/01/07 02:43:56;;;;;;;43.90;18.37;;;0.90;94.20;;;;;;5110627;28;20480;-84
2021/01/07 02:46:22;;;;;;;38.37;17.60;;;0.80;94.20;;;;;;5110653;28;20412;-84
2021/01/07 02:48:48;;;;;;;39.27;17.47;;;0.80;94.20;;;;;;5109898;28;20387;-84
2021/01/07 02:51:13;;;;;;;40.40;17.35;;;0.80;94.20;;;;;;5110652;28;20387;-84
2021/01/07 02:53:39;;;;;;;40.65;17.30;;;0.90;94.30;;;;;;5111442;28;20372;-84
2021/01/07 02:56:05;;;;;;;35.95;16.13;;;0.80;94.30;;;;;;5110690;28;20392;-84
2021/01/07 02:58:31;;;;;;;35.10;15.33;;;0.90;94.30;;;;;;5109990;28;20732;-84
2021/01/07 03:00:56;;;;;;;34.92;15.60;;;0.90;94.20;;;;;;5110657;28;20376;-84
2021/01/07 03:03:22;;;;;;;35.28;16.33;;;0.90;94.00;;;;;;5111654;28;20372;-85
2021/01/07 03:05:47;;;;;;;37.38;16.77;;;0.90;94.20;;;;;;5110482;28;20855;-84
2021/01/07 03:08:13;;;;;;;34.60;16.40;;;0.90;94.00;;;;;;5109674;28;20384;-84
2021/01/07 03:10:38;;;;;;;36.13;16.38;;;0.90;94.10;;;;;;5110118;28;20928;-84
2021/01/07 03:13:04;;;;;;;36.20;16.33;;;0.90;94.00;;;;;;5110351;28;20487;-84
2021/01/07 03:15:30;;;;;;;39.17;16.30;;;0.90;94.00;;;;;;5110027;28;20467;-85
2021/01/07 03:17:55;;;;;;;38.77;18.03;;;0.90;94.00;;;;;;5109985;28;20376;-84
2021/01/07 03:20:22;;;;;;;41.03;18.50;;;0.90;94.20;;;;;;5111272;27;20808;-84
2021/01/07 03:22:47;;;;;;;37.22;16.58;;;0.90;94.10;;;;;;5111863;28;20733;-84
2021/01/07 03:25:13;;;;;;;46.53;19.00;;;0.90;93.90;;;;;;5109824;28;20411;-84
2021/01/07 03:27:39;;;;;;;39.33;18.40;;;0.90;94.10;;;;;;5109727;28;20376;-84
2021/01/07 03:30:09;;;;;;;45.95;20.27;;;0.90;93.80;;;;;;5109856;28;20407;-85
2021/01/07 03:32:35;;;;;;;45.63;20.80;;;0.90;93.90;;;;;;5109944;28;21061;-85
2021/01/07 03:35:03;;;;;;;46.55;19.08;;;0.90;94.00;;;;;;5111039;28;20388;-83
2021/01/07 03:37:28;;;;;;;46.83;21.27;;;0.90;94.00;;;;;;5109126;28;20725;-84
2021/01/07 03:39:54;;;;;;;44.00;20.40;;;0.90;94.00;;;;;;5109917;28;20388;-83
2021/01/07 03:42:19;;;;;;;40.83;19.67;;;0.90;94.00;;;;;;5109487;28;20718;-84
2021/01/07 03:44:45;;;;;;;50.73;20.30;;;0.90;93.80;;;;;;5109737;28;20437;-84
2021/01/07 03:47:11;;;;;;;48.23;21.23;;;0.90;94.20;;;;;;5109133;28;20517;-85
2021/01/07 03:49:36;;;;;;;44.95;21.15;;;0.90;94.10;;;;;;5109383;28;20746;-84
2021/01/07 03:52:02;;;;;;;48.40;22.63;;;0.90;93.80;;;;;;5109319;28;20412;-83
2021/01/07 03:54:28;;;;;;;50.95;22.00;;;0.90;94.00;;;;;;5110908;28;20463;-84
2021/01/07 03:56:53;;;;;;;57.93;21.73;;;0.90;93.90;;;;;;5109796;28;20392;-84
2021/01/07 03:59:19;;;;;;;48.57;22.40;;;0.90;94.10;;;;;;5109698;28;20771;-82
2021/01/07 04:01:45;;;;;;;57.30;24.27;;;0.90;94.10;;;;;;5109195;28;20441;-84
2021/01/07 04:04:10;;;;;;;58.13;23.40;;;0.90;94.10;;;;;;5109517;28;20392;-83
2021/01/07 04:06:36;;;;;;;52.47;23.30;;;0.90;94.10;;;;;;5108768;28;20412;-83
2021/01/07 04:09:03;;;;;;;52.35;22.42;;;1.00;94.00;;;;;;5109304;28;20381;-84
2021/01/07 04:11:29;;;;;;;55.72;23.63;;;0.90;94.20;;;;;;5110771;28;20434;-83
2021/01/07 04:13:55;;;;;;;55.80;24.17;;;0.90;94.20;;;;;;5109232;28;20392;-83
2021/01/07 04:16:20;;;;;;;55.03;23.02;;;0.90;94.30;;;;;;5111005;28;20408;-84
2021/01/07 04:18:46;;;;;;;54.90;25.30;;;0.90;94.40;;;;;;5108522;28;20407;-83
2021/01/07 04:21:11;;;;;;;58.33;26.30;;;0.90;94.00;;;;;;5109383;28;20381;-84
2021/01/07 04:23:37;;;;;;;61.77;25.87;;;0.90;94.00;;;;;;5109047;28;20926;-84
2021/01/07 04:26:03;;;;;;;63.33;27.07;;;0.90;94.20;;;;;;5110554;28;20415;-83
2021/01/07 04:28:28;;;;;;;67.70;28.10;;;0.90;94.10;;;;;;5108513;28;20472;-84
2021/01/07 04:30:55;;;;;;;62.73;28.20;;;0.90;94.10;;;;;;5107765;28;20475;-83
2021/01/07 04:33:20;;;;;;;56.67;26.27;;;0.90;94.20;;;;;;5108965;28;20376;-83
2021/01/07 04:35:46;;;;;;;66.68;28.15;;;0.90;94.20;;;;;;5109247;28;20384;-84
2021/01/07 04:38:11;;;;;;;62.35;27.75;;;0.90;94.20;;;;;;5108499;28;20381;-83
2021/01/07 04:40:37;;;;;;;64.28;27.75;;;0.90;94.10;;;;;;5108883;28;20872;-84
2021/01/07 04:43:03;;;;;;;62.20;27.50;;;0.90;94.30;;;;;;5109282;28;20415;-83
2021/01/07 04:45:29;;;;;;;56.25;26.27;;;0.90;94.20;;;;;;5108819;28;20405;-83
2021/01/07 04:47:55;;;;;;;53.85;25.23;;;0.90;94.40;;;;;;5108666;28;20377;-83
2021/01/07 04:50:21;;;;;;;60.17;27.03;;;0.90;94.20;;;;;;5112499;28;20388;-83
2021/01/07 04:52:47;;;;;;;62.42;26.20;;;0.90;94.30;;;;;;5112668;28;20806;-84
2021/01/07 04:55:13;;;;;;;60.05;26.73;;;0.90;94.20;;;;;;5113988;28;20395;-83
2021/01/07 04:57:40;;;;;;;60.70;27.33;;;0.90;94.30;;;;;;5112334;28;20384;-84
2021/01/07 05:00:08;;;;;;;56.50;27.20;;;0.90;94.00;;;;;;5113856;28;20372;-83
2021/01/07 05:02:34;;;;;;;58.88;26.70;;;0.90;94.20;;;;;;5112528;28;20938;-83
2021/01/07 05:05:02;;;;;;;67.97;28.13;;;0.90;94.30;;;;;;5112291;28;20405;-83
2021/01/07 05:07:28;;;;;;;60.17;26.23;;;1.00;94.30;;;;;;5111566;28;20380;-84
2021/01/07 05:10:03;;;;;;;52.50;25.83;;;0.90;94.10;;;;;;5112663;28;20368;-83
2021/01/07 05:12:28;;;;;;;55.78;25.65;;;0.90;94.20;;;;;;5112243;28;20479;-83
2021/01/07 05:14:54;;;;;;;56.73;26.13;;;0.90;94.30;;;;;;5113682;28;20900;-84
2021/01/07 05:17:19;;;;;;;64.35;26.58;;;0.90;94.30;;;;;;5111908;28;20381;-83
2021/01/07 05:19:45;;;;;;;53.42;25.58;;;0.90;94.20;;;;;;5112324;28;20416;-83
2021/01/07 05:22:11;;;;;;;58.38;26.33;;;0.90;94.10;;;;;;5112135;28;20388;-83
2021/01/07 05:24:38;;;;;;;59.67;24.27;;;0.90;94.30;;;;;;5112246;28;20478;-83
2021/01/07 05:27:09;;;;;;;55.05;24.75;;;0.90;94.20;;;;;;5111662;28;20387;-83
2021/01/07 05:29:40;;;;;;;52.05;24.48;;;1.00;94.20;;;;;;5110946;28;20387;-84
2021/01/07 05:32:07;;;;;;;52.65;23.17;;;0.90;94.10;;;;;;5113377;27;20368;-83
2021/01/07 05:34:44;;;;;;;53.05;24.23;;;1.00;94.00;;;;;;5112064;28;20387;-84
2021/01/07 05:37:16;;;;;;;49.83;22.57;;;1.00;94.00;;;;;;5111207;28;20864;-83
2021/01/07 05:39:47;;;;;;;46.50;21.65;;;0.90;94.00;;;;;;5113495;28;20457;-84
2021/01/07 05:42:13;;;;;;;45.95;22.58;;;0.90;94.20;;;;;;5111919;28;20685;-83
2021/01/07 05:44:46;;;;;;;45.23;22.27;;;0.90;94.30;;;;;;5111548;28;20373;-84
2021/01/07 05:47:29;;;;;;;48.33;23.30;;;0.90;94.20;;;;;;5111496;28;20441;-83
2021/01/07 05:49:59;;;;;;;49.35;22.83;;;0.90;94.20;;;;;;5111657;28;20750;-83
2021/01/07 05:52:32;;;;;;;48.50;22.38;;;0.90;94.10;;;;;;5111858;28;20380;-83
2021/01/07 05:55:01;;;;;;;46.15;22.27;;;1.00;94.40;;;;;;5111224;28;20407;-83
2021/01/07 05:57:29;;;;;;;43.10;21.02;;;1.00;94.10;;;;;;5112460;28;20387;-83
2021/01/07 05:59:56;;;;;;;51.10;21.52;;;0.90;94.20;;;;;;5110996;28;20445;-83
2021/01/07 06:02:23;;;;;;;47.20;22.08;;;0.90;94.40;;;;;;5112036;28;20384;-83
2021/01/07 06:04:52;;;;;;;48.47;23.38;;;0.90;94.40;;;;;;5111518;28;20416;-84
2021/01/07 06:07:18;;;;;;;51.15;23.25;;;1.00;94.40;;;;;;5112121;28;20841;-83
2021/01/07 06:09:48;;;;;;;49.28;22.90;;;1.00;94.40;;;;;;5112225;28;20376;-83
2021/01/07 06:12:14;;;;;;;56.53;24.00;;;1.00;94.50;;;;;;5111008;28;20481;-83
2021/01/07 06:14:44;;;;;;;60.17;25.70;;;1.00;94.30;;;;;;5111322;28;20392;-84
2021/01/07 06:17:12;;;;;;;53.03;25.83;;;0.90;94.40;;;;;;5110513;28;20381;-83
2021/01/07 06:19:40;;;;;;;55.13;25.13;;;1.00;94.30;;;;;;5112282;28;20372;-83
2021/01/07 06:22:15;;;;;;;59.17;25.77;;;1.00;94.30;;;;;;5112335;28;20388;-83
2021/01/07 06:24:42;;;;;;;62.08;26.83;;;0.90;94.40;;;;;;5110749;28;20379;-83
2021/01/07 06:27:20;;;;;;;55.60;25.63;;;0.90;94.50;;;;;;5110576;28;20469;-83
2021/01/07 06:29:46;;;;;;;63.97;27.80;;;1.00;94.50;;;;;;5110656;28;20395;-83
2021/01/07 06:32:12;;;;;;;60.67;25.93;;;1.00;94.40;;;;;;5110849;28;20416;-84
2021/01/07 06:34:39;;;;;;;60.83;25.90;;;1.00;94.70;;;;;;5111859;28;20720;-83
2021/01/07 06:37:05;;;;;;;62.13;25.97;;;0.90;94.70;;;;;;5110161;28;20419;-83
2021/01/07 06:39:40;;;;;;;51.42;23.67;;;1.00;94.70;;;;;;5110462;28;20450;-83
2021/01/07 06:42:06;;;;;;;60.78;25.90;;;0.90;94.70;;;;;;5110398;28;20438;-83
2021/01/07 06:44:32;;;;;;;56.97;25.83;;;0.90;94.90;;;;;;5110601;28;20415;-83
2021/01/07 06:46:58;;;;;;;53.05;25.73;;;0.90;94.90;;;;;;5109761;28;20404;-83
2021/01/07 06:49:28;;;;;;;60.83;25.55;;;1.00;94.90;;;;;;5110545;28;20412;-84
2021/01/07 06:52:04;;;;;;;51.85;24.65;;;0.90;94.90;;;;;;5110329;28;20396;-83
2021/01/07 06:54:52;;;;;;;53.23;24.93;;;0.90;95.00;;;;;;5110433;28;20416;-84
2021/01/07 06:57:18;;;;;;;48.97;24.95;;;0.90;95.20;;;;;;5109767;28;20804;-83
2021/01/07 06:59:57;;;;;;;55.65;24.25;;;0.90;95.30;;;;;;5110399;28;20434;-84
2021/01/07 07:02:24;;;;;;;50.17;24.13;;;0.90;95.50;;;;;;5111825;28;20721;-83
2021/01/07 07:05:08;;;;;;;47.05;22.70;;;0.90;95.50;;;;;;5110035;28;20464;-83
2021/01/07 07:07:41;;;;;;;45.22;22.23;;;0.90;95.40;;;;;;5109956;28;20385;-83
2021/01/07 07:10:22;;;;;;;45.88;22.17;;;0.80;95.60;;;;;;5110037;28;20385;-83
2021/01/07 07:12:52;;;;;;;45.05;22.20;;;0.80;95.60;;;;;;5109812;28;20391;-84
2021/01/07 07:15:24;;;;;;;41.83;20.83;;;0.90;95.60;;;;;;5109787;28;20422;-84
2021/01/07 07:17:56;;;;;;;49.15;22.30;;;0.80;95.60;;;;;;5109751;28;20384;-83
2021/01/07 07:20:24;;;;;;;48.40;22.43;;;0.90;95.70;;;;;;5111488;28;20383;-83
2021/01/07 07:22:52;;;;;;;44.13;21.52;;;0.80;95.70;;;;;;5109777;28;20463;-83
2021/01/07 07:25:25;;;;;;;48.88;23.63;;;0.80;95.80;;;;;;5109769;28;20475;-83
2021/01/07 07:27:52;;;;;;;47.72;21.90;;;0.80;96.00;;;;;;5109327;28;20381;-83
2021/01/07 07:30:24;;;;;;;49.88;21.65;;;0.70;96.10;;;;;;5110001;28;20396;-83
2021/01/07 07:32:50;;;;;;;43.67;19.57;;;0.70;96.20;;;;;;5109544;28;20388;-82
2021/01/07 07:35:27;;;;;;;42.13;20.15;;;0.80;96.20;;;;;;5109639;28;20468;-83
2021/01/07 07:37:53;;;;;;;44.00;20.60;;;0.80;96.10;;;;;;5109302;28;20483;-83
2021/01/07 07:40:39;;;;;;;46.38;20.45;;;0.90;96.30;;;;;;5109889;28;20419;-83
2021/01/07 07:43:06;;;;;;;44.35;19.90;;;0.80;96.10;;;;;;5110028;28;20396;-83
2021/01/07 07:45:34;;;;;;;42.53;20.35;;;0.80;96.10;;;;;;5109757;28;20405;-81
2021/01/07 07:48:01;;;;;;;42.40;19.17;;;0.80;96.00;;;;;;5111215;28;20380;-82
2021/01/07 07:50:28;;;;;;;42.00;18.20;;;0.80;95.80;;;;;;5109807;28;20375;-82
2021/01/07 07:53:04;;;;;;;43.43;20.00;;;0.80;95.80;;;;;;5111425;28;20381;-83
2021/01/07 07:55:36;;;;;;;41.65;19.63;;;0.80;95.90;;;;;;5110752;28;20448;-83
2021/01/07 07:58:16;;;;;;;41.65;19.27;;;0.80;95.90;;;;;;5109284;28;20393;-82
2021/01/07 08:00:52;;;;;;;43.28;18.73;;;0.90;95.90;;;;;;5109415;28;20384;-83
2021/01/07 08:03:28;;;;;;;41.13;19.85;;;0.90;95.80;;;;;;5109233;28;20469;-83
2021/01/07 08:05:56;;;;;;;43.15;19.55;;;0.90;95.70;;;;;;5109606;28;20410;-83
2021/01/07 08:08:26;;;;;;;38.05;18.02;;;0.90;95.80;;;;;;5110163;28;20764;-83
2021/01/07 08:10:53;;;;;;;42.80;19.50;;;0.80;95.70;;;;;;5109563;28;20864;-83
2021/01/07 08:13:21;;;;;;;42.90;19.77;;;0.90;95.80;;;;;;5109114;28;20492;-83
2021/01/07 08:15:48;;;;;;;42.65;19.60;;;0.90;95.60;;;;;;5109555;28;20986;-82
2021/01/07 08:18:15;;;;;;;40.28;18.55;;;1.00;95.80;;;;;;5108840;28;20420;-83
2021/01/07 08:20:41;;;;;;;41.75;18.60;;;1.00;95.00;;;;;;5109148;28;20423;-82
2021/01/07 08:23:10;;;;;;;33.17;16.38;;;0.90;95.10;;;;;;5108503;28;20738;-83
2021/01/07 08:25:40;;;;;;;36.83;17.38;;;0.90;95.30;;;;;;5112674;28;20546;-83
2021/01/07 08:28:33;;;;;;;33.63;16.40;;;0.90;95.10;;;;;;5113018;28;20522;-83
2021/01/07 08:31:02;;;;;;;31.63;15.15;;;1.00;95.10;;;;;;5113310;28;20392;-83
2021/01/07 08:33:29;;;;;;;32.17;14.75;;;1.10;94.90;;;;;;5112999;28;20816;-82
2021/01/07 08:36:09;;;;;;;28.70;14.17;;;1.00;94.00;;;;;;5112833;28;20388;-82
2021/01/07 08:38:36;;;;;;;27.88;13.93;;;1.00;94.60;;;;;;5112635;28;20399;-83
2021/01/07 08:41:13;;;;;;;30.75;14.27;;;1.00;94.50;;;;;;5112569;28;20729;-82
2021/01/07 08:43:39;;;;;;;29.33;14.15;;;1.00;94.50;;;;;;5112863;28;20380;-83
2021/01/07 08:46:18;;;;;;;29.40;13.40;;;1.00;94.10;;;;;;5113259;28;20572;-82
2021/01/07 08:48:56;;;;;;;28.52;13.45;;;0.90;93.80;;;;;;5112432;28;21070;-82
2021/01/07 08:51:22;;;;;;;28.30;12.70;;;0.90;93.70;;;;;;5112126;28;21203;-82
2021/01/07 08:53:57;;;;;;;30.23;13.50;;;1.00;93.80;;;;;;5111802;28;20389;-82
2021/01/07 08:56:34;;;;;;;31.65;14.15;;;1.00;93.30;;;;;;5111920;28;20396;-83
2021/01/07 08:59:21;;;;;;;28.70;14.55;;;1.00;93.40;;;;;;5113423;28;20860;-83
2021/01/07 09:01:55;;;;;;;33.75;14.73;;;1.00;93.20;;;;;;5112381;28;20443;-82
2021/01/07 09:04:25;;;;;;;29.92;13.98;;;1.10;93.50;;;;;;5112593;28;20384;-82
2021/01/07 09:06:55;;;;;;;30.67;13.93;;;1.10;93.40;;;;;;5111903;28;20404;-82
2021/01/07 09:09:21;;;;;;;27.05;13.68;;;1.10;93.10;;;;;;5112393;28;20388;-83
2021/01/07 09:11:47;;;;;;;23.98;10.52;;;1.10;93.30;;;;;;5113589;28;20457;-83
2021/01/07 09:14:12;;;;;;;21.15;11.00;;;1.00;92.90;;;;;;5112498;28;20763;-82
2021/01/07 09:16:38;;;;;;;19.50;10.33;;;1.00;92.60;;;;;;5111871;28;20398;-82
2021/01/07 09:19:04;;;;;;;26.57;11.27;;;1.00;92.70;;;;;;5112655;28;20380;-82
2021/01/07 09:21:30;;;;;;;24.42;11.43;;;1.10;93.40;;;;;;5113389;28;20373;-82
2021/01/07 09:23:57;;;;;;;20.67;10.52;;;1.20;93.30;;;;;;5112088;28;20405;-86
2021/01/07 09:26:32;;;;;;;19.75;9.43;;;1.20;92.90;;;;;;5112115;28;20457;-83
2021/01/07 09:28:57;;;;;;;20.15;10.35;;;1.10;93.10;;;;;;5111925;28;20431;-82
2021/01/07 09:31:23;;;;;;;21.93;10.13;;;1.10;93.30;;;;;;5112074;28;20434;-84
2021/01/07 09:33:49;;;;;;;20.63;10.07;;;1.10;93.60;;;;;;5111835;28;20376;-83
2021/01/07 09:36:14;;;;;;;25.80;10.97;;;1.10;94.10;;;;;;5112942;28;20426;-82
2021/01/07 09:38:40;;;;;;;19.13;10.40;;;1.30;93.90;;;;;;5111146;28;20388;-81
2021/01/07 09:41:06;;;;;;;18.27;9.73;;;1.30;93.90;;;;;;5110133;27;20391;-82
2021/01/07 09:43:34;;;;;;;23.90;10.60;;;1.30;93.60;;;;;;5113778;27;20392;-82
2021/01/07 09:46:00;;;;;;;23.55;10.63;;;1.20;94.00;;;;;;5111654;28;20401;-82
2021/01/07 09:48:25;;;;;;;23.40;11.83;;;1.30;93.80;;;;;;5110911;28;20391;-82
2021/01/07 09:50:51;;;;;;;25.20;11.93;;;1.40;94.10;;;;;;5111721;28;20389;-82
2021/01/07 09:53:17;;;;;;;23.87;12.30;;;1.30;93.70;;;;;;5112328;28;20390;-82
2021/01/07 09:55:43;;;;;;;24.73;12.00;;;1.30;94.00;;;;;;5111115;28;20392;-82
2021/01/07 09:58:09;;;;;;;26.65;12.88;;;1.30;94.20;;;;;;5110614;28;20540;-81
2021/01/07 10:00:35;;;;;;;29.48;13.85;;;1.30;94.20;;;;;;5111610;28;20381;-82
2021/01/07 10:03:01;;;;;;;29.47;14.23;;;1.40;94.30;;;;;;5111687;28;20707;-81
2021/01/07 10:05:26;;;;;;;29.00;14.90;;;1.40;94.30;;;;;;5111217;28;20408;-81
2021/01/07 10:07:52;;;;;;;27.75;14.02;;;1.50;94.30;;;;;;5111099;28;20400;-81
2021/01/07 10:10:18;;;;;;;28.55;13.85;;;1.40;93.50;;;;;;5111177;28;20410;-83
2021/01/07 10:12:43;;;;;;;27.48;14.80;;;1.50;93.90;;;;;;5111418;28;20376;-81
2021/01/07 10:15:09;;;;;;;26.53;13.20;;;1.60;92.90;;;;;;5111040;28;20437;-81
2021/01/07 10:17:35;;;;;;;23.63;11.82;;;1.50;93.20;;;;;;5110784;28;20456;-81
2021/01/07 10:20:01;;;;;;;27.50;13.48;;;1.40;93.00;;;;;;5111007;28;20380;-81
2021/01/07 10:22:30;;;;;;;28.55;14.00;;;1.40;93.60;;;;;;5110600;28;20388;-82
2021/01/07 10:24:57;;;;;;;26.65;13.10;;;1.40;93.60;;;;;;5111179;28;20411;-81
2021/01/07 10:27:24;;;;;;;23.15;12.35;;;1.60;93.80;;;;;;5110346;28;20380;-83
2021/01/07 10:29:49;;;;;;;27.92;13.93;;;1.40;93.20;;;;;;5111016;28;20794;-82
2021/01/07 10:32:21;;;;;;;27.53;14.30;;;1.40;94.00;;;;;;5109904;28;20381;-82
2021/01/07 10:34:50;;;;;;;28.83;14.38;;;1.40;94.20;;;;;;5110963;28;20772;-82
2021/01/07 10:37:23;;;;;;;29.27;14.88;;;1.40;94.20;;;;;;5109559;28;20446;-82
2021/01/07 10:39:51;;;;;;;32.50;15.55;;;1.40;93.90;;;;;;5110628;28;20942;-82
2021/01/07 10:42:18;;;;;;;26.17;14.02;;;1.50;94.40;;;;;;5110389;28;20502;-82
2021/01/07 10:44:45;;;;;;;29.15;13.77;;;1.50;93.70;;;;;;5110600;28;20869;-81
2021/01/07 10:47:13;;;;;;;27.73;14.07;;;1.60;93.90;;;;;;5109152;28;20410;-82
2021/01/07 10:49:42;;;;;;;25.45;14.15;;;1.50;93.60;;;;;;5110416;28;20402;-81
2021/01/07 10:52:07;;;;;;;30.95;15.85;;;1.50;93.10;;;;;;5111437;28;20372;-83
2021/01/07 10:55:06;;;;;;;26.98;14.57;;;1.60;93.90;;;;;;5110083;28;20387;-82
2021/01/07 10:58:06;;;;;;;28.98;16.38;;;1.50;93.80;;;;;;5108320;28;20442;-82
2021/01/07 11:00:58;;;;;;;27.13;14.70;;;1.50;93.80;;;;;;5089674;28;20433;-83
2021/01/07 11:03:38;;;;;;;26.73;13.95;;;1.40;94.50;;;;;;5089856;28;20417;-84
2021/01/07 11:06:09;;;;;;;28.58;14.82;;;1.40;94.20;;;;;;5091058;28;20435;-81
2021/01/07 11:08:36;;;;;;;28.33;14.90;;;1.30;94.60;;;;;;5108822;27;20398;-82
2021/01/07 11:11:20;;;;;;;30.50;15.82;;;1.40;94.30;;;;;;5110089;28;20379;-82
2021/01/07 11:13:56;;;;;;;30.92;16.50;;;1.40;94.50;;;;;;5111157;28;20390;-81
2021/01/07 11:16:41;;;;;;;30.90;16.50;;;1.50;94.40;;;;;;5110090;28;20898;-81
2021/01/07 11:19:09;;;;;;;30.75;15.43;;;1.50;94.70;;;;;;5110037;28;20445;-80
2021/01/07 11:21:38;;;;;;;28.90;14.55;;;1.40;94.50;;;;;;5109544;28;20383;-81
2021/01/07 11:24:06;;;;;;;34.40;17.57;;;1.30;93.90;;;;;;5110944;28;20908;-81
2021/01/07 11:26:32;;;;;;;35.10;18.17;;;1.40;94.30;;;;;;5109400;28;20442;-81
2021/01/07 11:28:58;;;;;;;34.63;17.05;;;1.50;94.30;;;;;;5111021;28;20455;-81
2021/01/07 11:31:24;;;;;;;42.38;20.88;;;1.40;94.30;;;;;;5109512;28;20412;-82
2021/01/07 11:33:51;;;;;;;36.73;18.63;;;1.40;94.00;;;;;;5110133;28;20438;-82
2021/01/07 11:36:22;;;;;;;37.03;19.05;;;1.50;94.30;;;;;;5111591;28;20380;-81
2021/01/07 11:38:59;;;;;;;37.90;19.53;;;1.50;93.60;;;;;;5111714;28;20400;-81
2021/01/07 11:41:40;;;;;;;37.95;19.17;;;1.50;93.40;;;;;;5112154;28;20384;-81
2021/01/07 11:44:24;;;;;;;36.75;19.33;;;1.50;94.00;;;;;;5110302;28;20897;-82
2021/01/07 11:46:51;;;;;;;40.47;20.73;;;1.50;94.10;;;;;;5111178;28;20414;-82
2021/01/07 11:49:19;;;;;;;35.40;18.75;;;1.50;94.40;;;;;;5110278;28;20384;-81
2021/01/07 11:51:54;;;;;;;34.00;18.10;;;1.50;93.90;;;;;;5109530;28;20388;-81
2021/01/07 11:54:21;;;;;;;32.58;17.13;;;1.50;94.40;;;;;;5109295;28;20389;-80
2021/01/07 11:56:48;;;;;;;33.95;16.60;;;1.50;93.70;;;;;;5108204;28;20578;-82
2021/01/07 11:59:16;;;;;;;34.63;17.08;;;1.50;94.30;;;;;;5112605;28;20757;-80
2021/01/07 12:01:42;;;;;;;32.33;16.27;;;1.50;94.20;;;;;;5113270;28;20376;-82
2021/01/07 12:04:12;;;;;;;29.90;16.17;;;1.50;94.00;;;;;;5113464;28;20384;-81
2021/01/07 12:06:41;;;;;;;29.42;16.48;;;1.60;94.00;;;;;;5114137;28;20406;-81
2021/01/07 12:09:19;;;;;;;27.10;14.48;;;1.90;94.40;;;;;;5114986;28;20403;-81
2021/01/07 12:12:05;;;;;;;29.90;15.30;;;1.70;93.80;;;;;;5112319;28;20427;-83
2021/01/07 12:14:51;;;;;;;28.30;15.63;;;1.90;93.40;;;;;;5110444;28;20741;-82
2021/01/07 12:17:17;;;;;;;23.52;13.40;;;2.10;94.10;;;;;;5110557;28;20437;-82
2021/01/07 12:19:44;;;;;;;25.93;13.90;;;1.90;93.40;;;;;;5113796;28;20372;-82
2021/01/07 12:22:15;;;;;;;25.85;14.15;;;1.90;93.50;;;;;;5113626;28;20431;-81
2021/01/07 12:24:43;;;;;;;26.65;14.85;;;1.80;93.40;;;;;;5112628;28;20491;-82
2021/01/07 12:27:09;;;;;;;27.23;13.85;;;1.90;94.30;;;;;;5113490;28;20404;-82
2021/01/07 12:29:40;;;;;;;29.08;14.95;;;1.80;93.90;;;;;;5112139;28;20383;-82
2021/01/07 12:32:20;;;;;;;26.63;14.73;;;1.70;93.40;;;;;;5114711;28;20407;-82
2021/01/07 12:35:07;;;;;;;31.20;15.10;;;1.70;93.50;;;;;;5112902;28;20390;-81
2021/01/07 12:37:54;;;;;;;28.77;15.67;;;1.70;93.70;;;;;;5112478;28;20899;-81
2021/01/07 12:40:23;;;;;;;32.13;16.23;;;1.80;94.00;;;;;;5112974;28;20420;-80
2021/01/07 12:43:02;;;;;;;32.70;16.08;;;1.80;94.10;;;;;;5112325;28;20420;-81
2021/01/07 12:45:28;;;;;;;30.17;16.48;;;1.80;94.00;;;;;;5113000;28;20456;-80
2021/01/07 12:47:55;;;;;;;27.23;14.80;;;1.90;94.10;;;;;;5112215;28;20774;-81